Main page
METAR-TAF:

METAR-TAF

Airports :

Faribault Municipal Airport

Faribault, Minnesota, United States

latitude: 44-20N, longitude: 093-19W, elevation: 1056 ft

Current weather observation

The report was made 38 minutes ago, at 08:35 UTC
Calm wind
Temperature 18°F
Humidity 92%
Pressure 30.00 in. Hg
Visibility: 10 miles
Clear sky

METAR: KFBL 020835Z AUTO 00000KT 10SM CLR M08/M09 A3000 RMK AO2

Time: 03:13 (09:13 UTC)


TAF: missing

Weather observations and forecasts of more than 4000 airports (METAR and TAF reports).

The available stations are represented by yellow and red dots on the map.

Hover mouse over dot to see the name of the station.

Then click to see weather observations and forecasts.

To change the map : click on the green buttons with a black cross to zoom in, on the green button with a dash to zoom out, or on the green arrows for adjacent maps.


METAR-TAF: